createdAt,value
2023-04-16T00:01:44.249Z,5.13
2023-04-16T00:04:11.682Z,3.80
2023-04-16T00:06:39.106Z,6.57
2023-04-16T00:09:06.523Z,5.68
2023-04-16T00:11:33.920Z,6.15
2023-04-16T00:14:01.299Z,3.10
2023-04-16T00:16:28.821Z,5.80
2023-04-16T00:18:56.172Z,3.92
2023-04-16T00:21:23.491Z,6.90
2023-04-16T00:23:50.904Z,2.58
2023-04-16T00:26:18.230Z,5.75
2023-04-16T00:28:46.517Z,5.05
2023-04-16T00:31:13.951Z,3.83
2023-04-16T00:33:41.374Z,4.00
2023-04-16T00:36:09.791Z,4.05
2023-04-16T00:38:37.442Z,3.33
2023-04-16T00:41:04.828Z,4.20
2023-04-16T00:43:32.178Z,5.40
2023-04-16T00:45:59.673Z,5.15
2023-04-16T00:48:28.159Z,4.75
2023-04-16T00:50:55.864Z,3.85
2023-04-16T00:53:24.315Z,3.65
2023-04-16T00:55:52.119Z,4.30
2023-04-16T00:58:20.040Z,4.30
2023-04-16T01:00:48.347Z,3.42
2023-04-16T01:03:16.967Z,4.07
2023-04-16T01:05:45.996Z,3.75
2023-04-16T01:08:21.572Z,4.43
2023-04-16T01:10:48.910Z,5.72
2023-04-16T01:13:16.345Z,4.35
2023-04-16T01:15:43.649Z,4.95
2023-04-16T01:18:18.361Z,4.30
2023-04-16T01:23:14.347Z,3.17
2023-04-16T01:25:41.937Z,4.60
2023-04-16T01:28:09.280Z,7.50
2023-04-16T01:30:36.899Z,6.72
2023-04-16T01:33:13.580Z,6.47
2023-04-16T01:35:41.678Z,4.20
2023-04-16T01:38:10.282Z,7.45
2023-04-16T01:40:38.168Z,6.93
2023-04-16T01:43:05.741Z,3.70
2023-04-16T01:45:34.110Z,5.18
2023-04-16T01:48:02.126Z,8.20
2023-04-16T01:50:30.816Z,6.68
2023-04-16T01:52:58.232Z,4.95
2023-04-16T01:55:25.672Z,6.05
2023-04-16T01:57:53.084Z,8.40
2023-04-16T02:00:21.855Z,4.38
2023-04-16T02:02:49.495Z,7.70
2023-04-16T02:05:24.725Z,7.30
2023-04-16T02:07:52.020Z,4.70
2023-04-16T02:10:19.380Z,5.30
2023-04-16T02:12:49.905Z,3.85
2023-04-16T02:15:17.602Z,8.45
2023-04-16T02:17:46.797Z,4.53
2023-04-16T02:20:14.294Z,7.28
2023-04-16T02:22:55.030Z,4.53
2023-04-16T02:25:24.470Z,7.32
2023-04-16T02:27:55.159Z,5.32
2023-04-16T02:30:36.623Z,7.43
2023-04-16T02:33:07.232Z,6.32
2023-04-16T02:35:36.093Z,9.10
2023-04-16T02:38:04.606Z,5.40
2023-04-16T02:40:32.845Z,7.22
2023-04-16T02:43:00.742Z,7.47
2023-04-16T02:45:28.273Z,5.22
2023-04-16T02:47:55.644Z,6.80
2023-04-16T02:50:23.010Z,7.28
2023-04-16T02:52:51.548Z,7.25
2023-04-16T02:55:19.037Z,6.47
2023-04-16T02:57:46.360Z,6.47
2023-04-16T03:00:13.948Z,5.85
2023-04-16T03:02:42.528Z,7.22
2023-04-16T03:05:11.735Z,7.15
2023-04-16T03:07:40.705Z,8.02
2023-04-16T03:10:09.122Z,9.63
2023-04-16T03:12:36.546Z,9.55
2023-04-16T03:15:07.786Z,6.85
2023-04-16T03:17:35.183Z,8.85
2023-04-16T03:20:02.634Z,4.45
2023-04-16T03:22:30.519Z,5.10
2023-04-16T03:24:57.897Z,9.95
2023-04-16T03:27:25.360Z,8.50
2023-04-16T03:29:53.322Z,7.15
2023-04-16T03:32:20.848Z,7.45
2023-04-16T03:34:48.179Z,9.20
2023-04-16T03:37:15.529Z,8.80
2023-04-16T03:39:43.037Z,7.35
2023-04-16T03:42:11.879Z,7.40
2023-04-16T03:44:39.253Z,5.25
2023-04-16T03:47:06.695Z,8.02
2023-04-16T03:49:34.001Z,7.00
2023-04-16T03:52:01.605Z,6.43
2023-04-16T03:54:29.019Z,10.93
2023-04-16T03:57:07.407Z,12.50
2023-04-16T03:59:34.801Z,8.70
2023-04-16T04:02:02.181Z,8.80
2023-04-16T04:04:29.755Z,8.15
2023-04-16T04:06:58.408Z,10.57
2023-04-16T04:09:27.466Z,6.75
2023-04-16T04:11:54.940Z,11.30
2023-04-16T04:14:22.368Z,8.57
2023-04-16T04:16:49.796Z,6.93
2023-04-16T04:19:17.169Z,8.73
2023-04-16T04:21:44.670Z,9.82
2023-04-16T04:24:12.068Z,13.25
2023-04-16T04:26:39.466Z,15.25
2023-04-16T04:29:06.826Z,7.65
2023-04-16T04:31:35.489Z,9.65
2023-04-16T04:34:03.193Z,7.63
2023-04-16T04:36:30.990Z,9.93
2023-04-16T04:38:58.345Z,12.85
2023-04-16T04:41:26.961Z,8.98
2023-04-16T04:43:54.331Z,11.45
2023-04-16T04:46:21.907Z,10.57
2023-04-16T04:48:50.541Z,16.33
2023-04-16T04:51:18.006Z,10.90
2023-04-16T04:53:47.144Z,12.23
2023-04-16T04:56:14.547Z,9.43
2023-04-16T04:58:42.198Z,9.18
2023-04-16T05:01:09.776Z,13.13
2023-04-16T05:03:37.280Z,13.10
2023-04-16T05:06:04.826Z,17.00
2023-04-16T05:08:32.138Z,17.67
2023-04-16T05:11:00.430Z,17.52
2023-04-16T05:13:27.808Z,19.45
2023-04-16T05:15:55.290Z,16.60
2023-04-16T05:18:22.629Z,16.10
2023-04-16T05:20:49.964Z,13.40
2023-04-16T05:23:17.317Z,16.63
2023-04-16T05:25:44.704Z,17.15
2023-04-16T05:28:12.007Z,18.42
2023-04-16T05:30:39.341Z,14.32
2023-04-16T05:33:06.672Z,22.10
2023-04-16T05:35:35.065Z,16.52
2023-04-16T05:38:02.514Z,23.08
2023-04-16T05:40:30.041Z,16.40
2023-04-16T05:42:57.449Z,13.55
2023-04-16T05:45:26.701Z,14.20
2023-04-16T05:47:55.377Z,14.60
2023-04-16T05:50:22.733Z,15.73
2023-04-16T05:52:50.098Z,15.25
2023-04-16T05:55:17.482Z,12.88
2023-04-16T05:57:44.768Z,18.55
2023-04-16T06:00:12.408Z,14.55
2023-04-16T06:02:39.916Z,17.25
2023-04-16T06:05:07.730Z,20.48
2023-04-16T06:07:35.145Z,13.85
2023-04-16T06:10:02.515Z,15.63
2023-04-16T06:12:29.923Z,17.80
2023-04-16T06:14:57.273Z,17.63
2023-04-16T06:17:24.701Z,13.57
2023-04-16T06:19:52.084Z,20.48
2023-04-16T06:22:19.465Z,13.70
2023-04-16T06:24:46.845Z,13.45
2023-04-16T06:27:14.246Z,10.45
2023-04-16T06:29:42.021Z,16.13
2023-04-16T06:32:09.619Z,15.23
2023-04-16T06:34:38.553Z,13.00
2023-04-16T06:37:06.741Z,11.80
2023-04-16T06:39:35.818Z,10.48
2023-04-16T06:42:03.856Z,11.15
2023-04-16T06:44:31.307Z,11.48
2023-04-16T06:46:58.788Z,13.13
2023-04-16T06:49:26.155Z,12.55
2023-04-16T06:51:53.581Z,20.15
2023-04-16T06:54:20.929Z,15.07
2023-04-16T06:56:48.282Z,15.50
2023-04-16T06:59:15.964Z,16.98
2023-04-16T07:01:43.431Z,18.83
2023-04-16T07:04:11.909Z,10.88
2023-04-16T07:06:39.353Z,16.55
2023-04-16T07:09:06.695Z,10.85
2023-04-16T07:11:34.436Z,16.25
2023-04-16T07:14:02.129Z,15.15
2023-04-16T07:16:29.656Z,12.20
2023-04-16T07:18:57.004Z,10.93
2023-04-16T07:21:24.365Z,10.48
2023-04-16T07:23:51.685Z,11.60
2023-04-16T07:26:19.058Z,17.95
2023-04-16T07:28:46.480Z,12.15
2023-04-16T07:31:13.851Z,14.43
2023-04-16T07:33:41.213Z,14.43
2023-04-16T07:36:08.663Z,11.98
2023-04-16T07:38:36.162Z,10.88
2023-04-16T07:41:03.672Z,13.80
2023-04-16T07:43:31.080Z,13.15
2023-04-16T07:45:58.453Z,10.93
2023-04-16T07:48:26.064Z,14.43
2023-04-16T07:50:53.483Z,9.98
2023-04-16T07:53:20.878Z,9.73
2023-04-16T07:55:48.219Z,10.63
2023-04-16T07:58:15.530Z,13.63
2023-04-16T08:00:43.353Z,18.73
2023-04-16T08:03:10.989Z,14.38
2023-04-16T08:05:38.595Z,9.93
2023-04-16T08:08:06.093Z,11.30
2023-04-16T08:10:33.927Z,13.27
2023-04-16T08:13:02.125Z,10.52
2023-04-16T08:15:29.797Z,10.70
2023-04-16T08:17:57.206Z,16.65
2023-04-16T08:20:24.740Z,11.77
2023-04-16T08:22:54.200Z,10.52
2023-04-16T08:25:23.635Z,8.60
2023-04-16T08:27:51.122Z,9.55
2023-04-16T08:30:18.624Z,10.20
2023-04-16T08:32:48.698Z,9.68
2023-04-16T08:35:17.469Z,10.52
2023-04-16T08:37:44.885Z,11.30
2023-04-16T08:40:12.479Z,12.52
2023-04-16T08:42:44.960Z,12.15
2023-04-16T08:45:18.353Z,9.68
2023-04-16T08:47:50.553Z,12.30
2023-04-16T08:50:25.465Z,9.77
2023-04-16T08:53:03.912Z,10.30
2023-04-16T08:55:38.470Z,12.63
2023-04-16T08:58:23.228Z,10.25
2023-04-16T09:00:51.028Z,12.75
2023-04-16T09:03:21.621Z,9.82
2023-04-16T09:05:50.532Z,8.93
2023-04-16T09:08:18.252Z,10.57
2023-04-16T09:10:46.451Z,7.78
2023-04-16T09:13:16.464Z,7.93
2023-04-16T09:15:44.426Z,10.90
2023-04-16T09:18:12.280Z,11.02
2023-04-16T09:20:39.858Z,12.63
2023-04-16T09:23:07.281Z,9.57
2023-04-16T09:25:35.258Z,10.73
2023-04-16T09:28:02.874Z,9.48
2023-04-16T09:30:30.342Z,8.18
2023-04-16T09:33:13.067Z,7.35
2023-04-16T09:35:51.272Z,7.00
2023-04-16T09:38:19.795Z,7.60
2023-04-16T09:40:47.587Z,5.75
2023-04-16T09:43:17.172Z,7.85
2023-04-16T09:45:55.227Z,11.43
2023-04-16T09:48:32.936Z,8.18
2023-04-16T09:51:03.541Z,10.50
2023-04-16T09:53:32.169Z,9.02
2023-04-16T09:56:01.415Z,7.80
2023-04-16T09:58:29.672Z,7.78
2023-04-16T10:01:02.406Z,6.28
2023-04-16T10:03:38.003Z,6.40
2023-04-16T10:06:20.648Z,6.80
2023-04-16T10:08:52.665Z,6.78
2023-04-16T10:11:21.283Z,7.97
2023-04-16T10:13:49.194Z,6.00
2023-04-16T10:16:17.960Z,8.02
2023-04-16T10:18:47.350Z,9.48
2023-04-16T10:21:16.342Z,6.47
2023-04-16T10:23:44.466Z,6.10
2023-04-16T10:26:12.023Z,7.88
2023-04-16T10:28:40.801Z,8.75
2023-04-16T10:31:09.427Z,10.02
2023-04-16T10:33:40.678Z,7.35
2023-04-16T10:36:16.271Z,8.00
2023-04-16T10:38:49.356Z,6.88
2023-04-16T10:41:17.092Z,8.43
2023-04-16T10:43:46.496Z,8.18
2023-04-16T10:46:27.196Z,8.93
2023-04-16T10:48:56.086Z,8.25
2023-04-16T10:51:31.352Z,7.95
2023-04-16T10:54:19.484Z,7.95
2023-04-16T10:56:47.726Z,13.25
2023-04-16T10:59:19.013Z,8.50
2023-04-16T11:01:48.649Z,10.70
2023-04-16T11:04:25.395Z,7.13
2023-04-16T11:07:11.111Z,14.50
2023-04-16T11:10:05.363Z,9.73
2023-04-16T11:12:37.908Z,8.93
2023-04-16T11:15:11.050Z,8.52
2023-04-16T11:17:46.960Z,11.73
2023-04-16T11:20:23.553Z,10.98
2023-04-16T11:22:52.877Z,12.82
2023-04-16T11:25:30.128Z,13.50
2023-04-16T11:27:59.232Z,10.32
2023-04-16T11:30:33.903Z,14.32
2023-04-16T11:33:05.823Z,14.20
2023-04-16T11:35:33.457Z,13.68
2023-04-16T11:38:00.985Z,11.60
2023-04-16T11:40:31.879Z,12.85
2023-04-16T11:43:04.238Z,14.45
2023-04-16T11:45:31.784Z,12.55
2023-04-16T11:47:59.192Z,12.60
2023-04-16T11:50:28.389Z,16.67
2023-04-16T11:53:03.036Z,12.05
2023-04-16T11:57:57.663Z,12.43
2023-04-16T12:00:25.156Z,12.98
2023-04-16T12:02:55.145Z,15.88
2023-04-16T12:05:37.335Z,18.33
2023-04-16T12:08:06.952Z,14.98
2023-04-16T12:10:36.573Z,10.75
2023-04-16T12:13:15.254Z,13.13
2023-04-16T12:15:50.576Z,11.25
2023-04-16T12:18:20.209Z,11.25
2023-04-16T12:20:47.864Z,18.08
2023-04-16T12:23:33.323Z,12.55
2023-04-16T12:26:10.798Z,13.95
2023-04-16T12:28:39.304Z,17.30
2023-04-16T12:31:08.113Z,15.93
2023-04-16T12:33:35.615Z,16.30
2023-04-16T12:36:20.243Z,19.05
2023-04-16T12:38:47.614Z,11.95
2023-04-16T12:41:14.957Z,15.07
2023-04-16T12:43:42.384Z,15.60
2023-04-16T12:46:09.767Z,21.15
2023-04-16T12:48:37.924Z,12.48
2023-04-16T12:51:05.418Z,15.93
2023-04-16T12:53:32.741Z,14.75
2023-04-16T12:56:00.577Z,15.05
2023-04-16T12:58:27.942Z,13.40
2023-04-16T13:00:55.337Z,15.35
2023-04-16T13:03:22.971Z,16.95
2023-04-16T13:05:50.583Z,13.55
2023-04-16T13:08:17.996Z,14.02
2023-04-16T13:10:45.382Z,12.82
2023-04-16T13:13:12.740Z,13.68
2023-04-16T13:15:40.126Z,12.75
2023-04-16T13:18:07.502Z,14.25
2023-04-16T13:20:34.947Z,13.73
2023-04-16T13:23:04.920Z,13.30
2023-04-16T13:25:32.390Z,10.25
2023-04-16T13:27:59.734Z,12.43
2023-04-16T13:30:29.356Z,15.23
2023-04-16T13:32:57.044Z,13.65
2023-04-16T13:35:24.447Z,15.90
2023-04-16T13:37:51.799Z,14.20
2023-04-16T13:40:20.403Z,12.25
2023-04-16T13:42:47.758Z,11.82
2023-04-16T13:45:15.215Z,12.75
2023-04-16T13:47:43.451Z,12.55
2023-04-16T13:50:11.176Z,12.25
2023-04-16T13:52:38.562Z,15.02
2023-04-16T13:55:06.357Z,13.00
2023-04-16T13:57:33.697Z,14.98
2023-04-16T14:00:01.819Z,14.25
2023-04-16T14:02:32.187Z,14.25
2023-04-16T14:04:59.648Z,13.25
2023-04-16T14:07:27.629Z,13.50
2023-04-16T14:09:55.021Z,15.25
2023-04-16T14:12:22.467Z,13.32
2023-04-16T14:14:49.929Z,15.57
2023-04-16T14:17:17.374Z,11.38
2023-04-16T14:19:44.755Z,13.38
2023-04-16T14:22:12.151Z,13.85
2023-04-16T14:24:39.536Z,14.23
2023-04-16T14:27:06.933Z,16.45
2023-04-16T14:29:34.466Z,14.23
2023-04-16T14:32:02.084Z,17.15
2023-04-16T14:34:29.524Z,16.65
2023-04-16T14:36:56.930Z,18.05
2023-04-16T14:39:24.951Z,15.52
2023-04-16T14:41:52.348Z,16.95
2023-04-16T14:44:19.719Z,16.70
2023-04-16T14:46:47.144Z,15.25
2023-04-16T14:49:14.876Z,15.75
2023-04-16T14:51:42.818Z,18.85
2023-04-16T14:54:10.275Z,17.27
2023-04-16T14:56:38.008Z,16.60
2023-04-16T14:59:05.433Z,14.88
2023-04-16T15:01:34.584Z,17.20
2023-04-16T15:04:03.068Z,12.95
2023-04-16T15:06:32.290Z,12.55
2023-04-16T15:08:59.922Z,16.42
2023-04-16T15:11:28.482Z,15.75
2023-04-16T15:13:56.140Z,18.88
2023-04-16T15:16:23.803Z,18.55
2023-04-16T15:18:51.440Z,13.95
2023-04-16T15:21:18.949Z,17.30
2023-04-16T15:23:46.304Z,15.35
2023-04-16T15:26:13.756Z,20.02
2023-04-16T15:28:41.342Z,15.65
2023-04-16T15:31:08.922Z,15.15
2023-04-16T15:33:36.333Z,21.30
2023-04-16T15:36:04.022Z,21.67
2023-04-16T15:38:31.373Z,18.75
2023-04-16T15:41:00.460Z,16.50
2023-04-16T15:43:31.177Z,19.48
2023-04-16T15:45:58.655Z,17.35
2023-04-16T15:48:26.112Z,16.05
2023-04-16T15:50:54.536Z,20.27
2023-04-16T15:53:22.373Z,17.80
2023-04-16T15:55:52.699Z,19.27
2023-04-16T15:58:21.008Z,16.45
2023-04-16T16:00:50.181Z,16.95
2023-04-16T16:03:18.554Z,17.58
2023-04-16T16:05:47.918Z,14.32
2023-04-16T16:08:16.033Z,14.38
2023-04-16T16:10:43.635Z,16.20
2023-04-16T16:13:14.101Z,15.95
2023-04-16T16:15:41.967Z,14.57
2023-04-16T16:18:09.414Z,15.75
2023-04-16T16:20:37.128Z,16.50
2023-04-16T16:23:04.652Z,15.27
2023-04-16T16:25:32.186Z,12.95
2023-04-16T16:28:01.850Z,16.67
2023-04-16T16:30:30.015Z,14.65
2023-04-16T16:32:57.900Z,12.70
2023-04-16T16:35:26.230Z,15.20
2023-04-16T16:37:57.290Z,15.27
2023-04-16T16:40:25.066Z,27.02
2023-04-16T16:42:52.762Z,15.55
2023-04-16T16:45:20.112Z,12.68
2023-04-16T16:47:48.804Z,15.43
2023-04-16T16:50:16.303Z,14.48
2023-04-16T16:52:44.568Z,16.50
2023-04-16T16:55:11.999Z,20.25
2023-04-16T16:57:39.476Z,17.65
2023-04-16T17:00:11.510Z,14.05
2023-04-16T17:02:39.022Z,19.98
2023-04-16T17:05:07.596Z,15.68
2023-04-16T17:07:35.034Z,15.85
2023-04-16T17:10:05.215Z,18.30
2023-04-16T17:12:34.071Z,14.73
2023-04-16T17:15:01.587Z,13.65
2023-04-16T17:17:29.231Z,18.95
2023-04-16T17:19:56.677Z,21.33
2023-04-16T17:22:24.124Z,14.88
2023-04-16T17:24:51.533Z,15.48
2023-04-16T17:27:18.962Z,15.73
2023-04-16T17:29:46.394Z,15.45
2023-04-16T17:32:13.894Z,18.38
2023-04-16T17:34:41.457Z,17.85
2023-04-16T17:37:08.861Z,15.57
2023-04-16T17:39:36.404Z,14.88
2023-04-16T17:42:03.989Z,15.88
2023-04-16T17:44:31.299Z,18.63
2023-04-16T17:46:58.922Z,16.33
2023-04-16T17:49:27.106Z,20.45
2023-04-16T17:51:54.669Z,17.65
2023-04-16T17:54:22.516Z,19.65
2023-04-16T17:56:50.036Z,17.30
2023-04-16T17:59:17.490Z,15.30
2023-04-16T18:01:45.326Z,17.75
2023-04-16T18:04:13.331Z,18.98
2023-04-16T18:06:41.019Z,19.10
2023-04-16T18:09:08.409Z,15.95
2023-04-16T18:11:36.010Z,18.60
2023-04-16T18:14:03.338Z,19.30
2023-04-16T18:16:30.896Z,18.35
2023-04-16T18:18:58.425Z,14.00
2023-04-16T18:21:26.106Z,17.80
2023-04-16T18:23:53.520Z,15.40
2023-04-16T18:26:22.641Z,18.98
2023-04-16T18:28:50.686Z,18.27
2023-04-16T18:31:20.922Z,19.30
2023-04-16T18:33:55.725Z,18.25
2023-04-16T18:36:24.969Z,18.13
2023-04-16T18:39:00.177Z,18.25
2023-04-16T18:41:29.047Z,17.52
2023-04-16T18:43:57.670Z,20.40
2023-04-16T18:46:25.470Z,18.02
2023-04-16T18:48:52.961Z,18.05
2023-04-16T18:51:20.366Z,19.63
2023-04-16T18:53:47.699Z,15.98
2023-04-16T18:56:15.425Z,19.10
2023-04-16T18:58:43.309Z,17.90
2023-04-16T19:01:13.091Z,18.17
2023-04-16T19:03:40.685Z,21.33
2023-04-16T19:06:08.328Z,16.70
2023-04-16T19:08:35.927Z,15.40
2023-04-16T19:11:03.271Z,18.60
2023-04-16T19:13:32.188Z,17.50
2023-04-16T19:16:00.566Z,11.07
2023-04-16T19:18:28.089Z,17.50
2023-04-16T19:20:59.945Z,19.98
2023-04-16T19:23:27.843Z,16.83
2023-04-16T19:25:58.298Z,13.20
2023-04-16T19:28:25.831Z,14.60
2023-04-16T19:30:54.056Z,15.98
2023-04-16T19:33:21.516Z,20.05
2023-04-16T19:35:48.889Z,15.80
2023-04-16T19:38:16.455Z,17.52
2023-04-16T19:40:45.740Z,16.25
2023-04-16T19:43:13.158Z,18.00
2023-04-16T19:45:48.085Z,20.00
2023-04-16T19:48:15.555Z,19.45
2023-04-16T19:50:43.066Z,20.98
2023-04-16T19:53:11.231Z,17.52
2023-04-16T19:55:42.114Z,20.98
2023-04-16T19:58:09.895Z,19.77
2023-04-16T20:00:38.610Z,16.52
2023-04-16T20:03:06.287Z,18.70
2023-04-16T20:05:33.907Z,22.33
2023-04-16T20:08:01.333Z,23.65
2023-04-16T20:10:29.381Z,20.75
2023-04-16T20:12:56.750Z,21.13
2023-04-16T20:15:24.177Z,22.50
2023-04-16T20:17:52.295Z,22.80
2023-04-16T20:20:19.938Z,25.02
2023-04-16T20:22:47.405Z,20.48
2023-04-16T20:25:18.821Z,23.63
2023-04-16T20:27:46.277Z,25.17
2023-04-16T20:30:14.164Z,20.55
2023-04-16T20:32:41.582Z,28.30
2023-04-16T20:35:11.383Z,25.67
2023-04-16T20:37:39.735Z,22.70
2023-04-16T20:40:08.964Z,26.75
2023-04-16T20:42:36.452Z,24.33
2023-04-16T20:45:04.827Z,28.17
2023-04-16T20:47:34.674Z,22.10
2023-04-16T20:50:02.969Z,25.38
2023-04-16T20:52:30.739Z,19.52
2023-04-16T20:54:58.284Z,24.50
2023-04-16T20:57:28.131Z,20.13
2023-04-16T20:59:56.439Z,24.17
2023-04-16T21:02:24.247Z,21.88
2023-04-16T21:04:51.982Z,22.27
2023-04-16T21:07:19.513Z,24.85
2023-04-16T21:09:46.862Z,18.85
2023-04-16T21:12:14.188Z,20.73
2023-04-16T21:14:41.508Z,24.42
2023-04-16T21:17:08.894Z,24.80
2023-04-16T21:19:36.261Z,28.60
2023-04-16T21:22:03.909Z,20.40
2023-04-16T21:24:32.154Z,24.73
2023-04-16T21:26:59.516Z,21.75
2023-04-16T21:29:26.986Z,25.83
2023-04-16T21:31:54.969Z,22.65
2023-04-16T21:34:22.431Z,22.13
2023-04-16T21:36:49.843Z,18.20
2023-04-16T21:39:19.671Z,21.35
2023-04-16T21:41:47.125Z,25.25
2023-04-16T21:44:15.369Z,20.73
2023-04-16T21:46:42.830Z,19.55
2023-04-16T21:49:10.507Z,24.17
2023-04-16T21:51:40.025Z,21.10
2023-04-16T21:54:07.851Z,24.20
2023-04-16T21:56:35.214Z,19.75
2023-04-16T21:59:02.645Z,20.08
2023-04-16T22:01:30.079Z,21.33
2023-04-16T22:03:57.734Z,22.10
2023-04-16T22:06:26.136Z,20.88
2023-04-16T22:08:53.592Z,24.05
2023-04-16T22:11:21.318Z,23.40
2023-04-16T22:13:49.470Z,21.85
2023-04-16T22:16:17.012Z,20.92
2023-04-16T22:18:45.143Z,20.45
2023-04-16T22:21:12.493Z,26.67
2023-04-16T22:23:39.853Z,20.23
2023-04-16T22:26:07.307Z,21.65
2023-04-16T22:28:35.039Z,20.42
2023-04-16T22:31:02.405Z,22.05
2023-04-16T22:33:30.648Z,22.95
2023-04-16T22:35:59.980Z,21.83
2023-04-16T22:38:27.355Z,22.42
2023-04-16T22:40:54.683Z,25.35
2023-04-16T22:43:22.078Z,24.10
2023-04-16T22:45:49.391Z,19.63
2023-04-16T22:48:17.227Z,21.10
2023-04-16T22:50:48.658Z,23.45
2023-04-16T22:53:16.246Z,20.80
2023-04-16T22:55:43.631Z,25.25
2023-04-16T22:58:10.994Z,21.27
2023-04-16T23:00:38.336Z,25.90
2023-04-16T23:03:06.028Z,23.40
2023-04-16T23:05:34.547Z,21.08
2023-04-16T23:08:01.955Z,19.13
2023-04-16T23:10:29.351Z,22.92
2023-04-16T23:12:56.722Z,20.23
2023-04-16T23:15:24.168Z,20.73
2023-04-16T23:17:51.736Z,24.23
2023-04-16T23:20:19.226Z,22.70
2023-04-16T23:22:47.053Z,21.15
2023-04-16T23:25:14.596Z,25.85
2023-04-16T23:27:42.052Z,27.05
2023-04-16T23:30:09.769Z,32.08
2023-04-16T23:32:37.189Z,20.00
2023-04-16T23:35:04.946Z,20.88
2023-04-16T23:37:32.393Z,26.33
2023-04-16T23:39:59.738Z,23.75
2023-04-16T23:42:27.106Z,21.13
2023-04-16T23:44:54.467Z,26.45
2023-04-16T23:47:23.208Z,23.95
2023-04-16T23:49:50.674Z,23.75
2023-04-16T23:52:18.030Z,25.90
2023-04-16T23:54:45.423Z,25.98
2023-04-16T23:57:12.738Z,24.85
2023-04-16T23:59:40.063Z,26.50
